Terminal Aerodrome Forecast
Issued by NWS

Home | Current Version | Previous Version | Text Only | Print | Product List | Glossary On
Versions: 1 2 3 4 5 6 7 8 9 10 11 12 13 14 15 16 17 18
000
FTUS41 KCAR 232339
TAFPQI
TAF
KPQI 232339Z 2400/2424 04005KT P6SM SCT250
     FM241400 06009KT P6SM BKN025
     FM241600 06010KT 2SM -SNPL OVC015
     FM241900 07011KT 2SM -PL OVC007
     FM242000 07012KT 1SM -PL OVC003=

USA.gov is the U.S. government's official web portal to all federal, state and local government web resources and services.